sensor_id;sensor_type;location;lat;lon;timestamp;pressure;altitude;pressure_sealevel;temperature
11792;BMP180;5953;52.372;9.918;2022-10-12T00:00:37;101837.00;;;11.20
11792;BMP180;5953;52.372;9.918;2022-10-12T00:03:04;101839.00;;;11.30
11792;BMP180;5953;52.372;9.918;2022-10-12T00:05:32;101841.00;;;11.20
11792;BMP180;5953;52.372;9.918;2022-10-12T00:08:00;101841.00;;;11.20
11792;BMP180;5953;52.372;9.918;2022-10-12T00:10:28;101837.00;;;11.10
11792;BMP180;5953;52.372;9.918;2022-10-12T00:12:57;101824.00;;;11.20
11792;BMP180;5953;52.372;9.918;2022-10-12T00:15:25;101847.00;;;11.30
11792;BMP180;5953;52.372;9.918;2022-10-12T00:17:53;101847.00;;;11.10
11792;BMP180;5953;52.372;9.918;2022-10-12T00:20:20;101854.00;;;11.10
11792;BMP180;5953;52.372;9.918;2022-10-12T00:22:48;101853.00;;;11.20
11792;BMP180;5953;52.372;9.918;2022-10-12T00:25:16;101842.00;;;11.10
11792;BMP180;5953;52.372;9.918;2022-10-12T00:27:44;101850.00;;;11.10
11792;BMP180;5953;52.372;9.918;2022-10-12T00:30:13;101847.00;;;11.10
11792;BMP180;5953;52.372;9.918;2022-10-12T00:32:41;101848.00;;;11.10
11792;BMP180;5953;52.372;9.918;2022-10-12T00:35:09;101848.00;;;11.00
11792;BMP180;5953;52.372;9.918;2022-10-12T00:37:37;101846.00;;;11.10
11792;BMP180;5953;52.372;9.918;2022-10-12T00:40:06;101860.00;;;11.00
11792;BMP180;5953;52.372;9.918;2022-10-12T00:42:34;101851.00;;;10.90
11792;BMP180;5953;52.372;9.918;2022-10-12T00:45:02;101842.00;;;10.90
11792;BMP180;5953;52.372;9.918;2022-10-12T00:47:34;101842.00;;;11.00
11792;BMP180;5953;52.372;9.918;2022-10-12T00:50:07;101852.00;;;10.80
11792;BMP180;5953;52.372;9.918;2022-10-12T00:52:39;101837.00;;;10.80
11792;BMP180;5953;52.372;9.918;2022-10-12T00:55:09;101844.00;;;10.90
11792;BMP180;5953;52.372;9.918;2022-10-12T00:57:39;101842.00;;;10.70
11792;BMP180;5953;52.372;9.918;2022-10-12T01:00:13;101848.00;;;10.70
11792;BMP180;5953;52.372;9.918;2022-10-12T01:02:42;101845.00;;;10.80
11792;BMP180;5953;52.372;9.918;2022-10-12T01:05:11;101847.00;;;10.70
11792;BMP180;5953;52.372;9.918;2022-10-12T01:07:40;101841.00;;;10.80
11792;BMP180;5953;52.372;9.918;2022-10-12T01:10:08;101846.00;;;10.70
11792;BMP180;5953;52.372;9.918;2022-10-12T01:12:37;101851.00;;;10.70
11792;BMP180;5953;52.372;9.918;2022-10-12T01:15:07;101841.00;;;10.70
11792;BMP180;5953;52.372;9.918;2022-10-12T01:17:41;101845.00;;;10.70
11792;BMP180;5953;52.372;9.918;2022-10-12T01:20:31;101849.00;;;10.60
11792;BMP180;5953;52.372;9.918;2022-10-12T01:23:22;101844.00;;;10.60
11792;BMP180;5953;52.372;9.918;2022-10-12T01:26:06;101840.00;;;10.60
11792;BMP180;5953;52.372;9.918;2022-10-12T01:28:45;101837.00;;;10.60
11792;BMP180;5953;52.372;9.918;2022-10-12T01:31:24;101844.00;;;10.60
11792;BMP180;5953;52.372;9.918;2022-10-12T01:34:00;101839.00;;;10.50
11792;BMP180;5953;52.372;9.918;2022-10-12T01:36:34;101844.00;;;10.50
11792;BMP180;5953;52.372;9.918;2022-10-12T01:39:07;101839.00;;;10.50
11792;BMP180;5953;52.372;9.918;2022-10-12T01:41:43;101835.00;;;10.50
11792;BMP180;5953;52.372;9.918;2022-10-12T01:44:19;101832.00;;;10.60
11792;BMP180;5953;52.372;9.918;2022-10-12T01:46:50;101823.00;;;10.50
11792;BMP180;5953;52.372;9.918;2022-10-12T01:49:22;101833.00;;;10.30
11792;BMP180;5953;52.372;9.918;2022-10-12T01:52:25;101824.00;;;10.40
11792;BMP180;5953;52.372;9.918;2022-10-12T01:55:10;101828.00;;;10.50
11792;BMP180;5953;52.372;9.918;2022-10-12T01:57:48;101834.00;;;10.40
11792;BMP180;5953;52.372;9.918;2022-10-12T02:00:19;101823.00;;;10.30
11792;BMP180;5953;52.372;9.918;2022-10-12T02:02:54;101834.00;;;10.30
11792;BMP180;5953;52.372;9.918;2022-10-12T02:05:34;101825.00;;;10.30
11792;BMP180;5953;52.372;9.918;2022-10-12T02:08:05;101823.00;;;10.30
11792;BMP180;5953;52.372;9.918;2022-10-12T02:10:38;101822.00;;;10.30
11792;BMP180;5953;52.372;9.918;2022-10-12T02:13:09;101817.00;;;10.30
11792;BMP180;5953;52.372;9.918;2022-10-12T02:15:39;101817.00;;;10.20
11792;BMP180;5953;52.372;9.918;2022-10-12T02:18:11;101814.00;;;10.10
11792;BMP180;5953;52.372;9.918;2022-10-12T02:20:41;101814.00;;;10.10
11792;BMP180;5953;52.372;9.918;2022-10-12T02:23:09;101819.00;;;10.10
11792;BMP180;5953;52.372;9.918;2022-10-12T02:25:37;101816.00;;;10.10
11792;BMP180;5953;52.372;9.918;2022-10-12T02:28:08;101816.00;;;10.10
11792;BMP180;5953;52.372;9.918;2022-10-12T02:30:37;101810.00;;;10.10
11792;BMP180;5953;52.372;9.918;2022-10-12T02:33:13;101811.00;;;10.10
11792;BMP180;5953;52.372;9.918;2022-10-12T02:35:47;101798.00;;;10.10
11792;BMP180;5953;52.372;9.918;2022-10-12T02:38:21;101802.00;;;9.90
11792;BMP180;5953;52.372;9.918;2022-10-12T02:40:55;101796.00;;;9.90
11792;BMP180;5953;52.372;9.918;2022-10-12T02:43:26;101798.00;;;10.00
11792;BMP180;5953;52.372;9.918;2022-10-12T02:45:57;101792.00;;;9.90
11792;BMP180;5953;52.372;9.918;2022-10-12T02:48:27;101802.00;;;9.90
11792;BMP180;5953;52.372;9.918;2022-10-12T02:50:56;101788.00;;;9.80
11792;BMP180;5953;52.372;9.918;2022-10-12T02:53:27;101798.00;;;9.90
11792;BMP180;5953;52.372;9.918;2022-10-12T02:56:00;101793.00;;;9.80
11792;BMP180;5953;52.372;9.918;2022-10-12T02:58:28;101786.00;;;9.80
11792;BMP180;5953;52.372;9.918;2022-10-12T03:00:55;101787.00;;;9.80
11792;BMP180;5953;52.372;9.918;2022-10-12T03:03:23;101794.00;;;9.90
11792;BMP180;5953;52.372;9.918;2022-10-12T03:05:53;101789.00;;;9.90
11792;BMP180;5953;52.372;9.918;2022-10-12T03:08:21;101789.00;;;9.90
11792;BMP180;5953;52.372;9.918;2022-10-12T03:10:49;101778.00;;;9.90
11792;BMP180;5953;52.372;9.918;2022-10-12T03:13:17;101775.00;;;9.90
11792;BMP180;5953;52.372;9.918;2022-10-12T03:15:44;101779.00;;;9.80
11792;BMP180;5953;52.372;9.918;2022-10-12T03:18:12;101774.00;;;9.80
11792;BMP180;5953;52.372;9.918;2022-10-12T03:20:40;101789.00;;;9.80
11792;BMP180;5953;52.372;9.918;2022-10-12T03:23:09;101769.00;;;9.70
11792;BMP180;5953;52.372;9.918;2022-10-12T03:25:37;101780.00;;;9.70
11792;BMP180;5953;52.372;9.918;2022-10-12T03:28:04;101783.00;;;9.60
11792;BMP180;5953;52.372;9.918;2022-10-12T03:30:32;101785.00;;;9.50
11792;BMP180;5953;52.372;9.918;2022-10-12T03:33:00;101770.00;;;9.70
11792;BMP180;5953;52.372;9.918;2022-10-12T03:35:28;101780.00;;;9.60
11792;BMP180;5953;52.372;9.918;2022-10-12T03:37:56;101772.00;;;9.60
11792;BMP180;5953;52.372;9.918;2022-10-12T03:40:25;101765.00;;;9.60
11792;BMP180;5953;52.372;9.918;2022-10-12T03:42:53;101763.00;;;9.60
11792;BMP180;5953;52.372;9.918;2022-10-12T03:45:20;101759.00;;;9.60
11792;BMP180;5953;52.372;9.918;2022-10-12T03:47:48;101772.00;;;9.60
11792;BMP180;5953;52.372;9.918;2022-10-12T03:50:17;101754.00;;;9.50
11792;BMP180;5953;52.372;9.918;2022-10-12T03:52:44;101760.00;;;9.50
11792;BMP180;5953;52.372;9.918;2022-10-12T03:55:13;101761.00;;;9.40
11792;BMP180;5953;52.372;9.918;2022-10-12T03:57:42;101755.00;;;9.40
11792;BMP180;5953;52.372;9.918;2022-10-12T04:00:12;101755.00;;;9.40
11792;BMP180;5953;52.372;9.918;2022-10-12T04:02:39;101762.00;;;9.40
11792;BMP180;5953;52.372;9.918;2022-10-12T04:05:08;101766.00;;;9.40
11792;BMP180;5953;52.372;9.918;2022-10-12T04:07:36;101764.00;;;9.30
11792;BMP180;5953;52.372;9.918;2022-10-12T04:10:05;101768.00;;;9.30
11792;BMP180;5953;52.372;9.918;2022-10-12T04:12:33;101761.00;;;9.30
11792;BMP180;5953;52.372;9.918;2022-10-12T04:15:03;101754.00;;;9.30
11792;BMP180;5953;52.372;9.918;2022-10-12T04:17:31;101758.00;;;9.30
11792;BMP180;5953;52.372;9.918;2022-10-12T04:19:58;101766.00;;;9.30
11792;BMP180;5953;52.372;9.918;2022-10-12T04:22:26;101762.00;;;9.30
11792;BMP180;5953;52.372;9.918;2022-10-12T04:24:54;101759.00;;;9.20
11792;BMP180;5953;52.372;9.918;2022-10-12T04:27:22;101758.00;;;9.30
11792;BMP180;5953;52.372;9.918;2022-10-12T04:29:49;101756.00;;;9.30
11792;BMP180;5953;52.372;9.918;2022-10-12T04:32:19;101752.00;;;9.30
11792;BMP180;5953;52.372;9.918;2022-10-12T04:34:47;101752.00;;;9.30
11792;BMP180;5953;52.372;9.918;2022-10-12T04:37:14;101753.00;;;9.30
11792;BMP180;5953;52.372;9.918;2022-10-12T04:39:42;101748.00;;;9.20
11792;BMP180;5953;52.372;9.918;2022-10-12T04:42:10;101750.00;;;9.20
11792;BMP180;5953;52.372;9.918;2022-10-12T04:44:38;101744.00;;;9.20
11792;BMP180;5953;52.372;9.918;2022-10-12T04:47:06;101747.00;;;9.10
11792;BMP180;5953;52.372;9.918;2022-10-12T04:49:35;101746.00;;;9.10
11792;BMP180;5953;52.372;9.918;2022-10-12T04:52:03;101761.00;;;9.10
11792;BMP180;5953;52.372;9.918;2022-10-12T04:54:31;101747.00;;;9.10
11792;BMP180;5953;52.372;9.918;2022-10-12T04:56:59;101751.00;;;9.10
11792;BMP180;5953;52.372;9.918;2022-10-12T04:59:27;101747.00;;;9.10
11792;BMP180;5953;52.372;9.918;2022-10-12T05:01:54;101762.00;;;9.20
11792;BMP180;5953;52.372;9.918;2022-10-12T05:04:22;101744.00;;;9.20
11792;BMP180;5953;52.372;9.918;2022-10-12T05:06:52;101746.00;;;9.00
11792;BMP180;5953;52.372;9.918;2022-10-12T05:09:20;101750.00;;;8.90
11792;BMP180;5953;52.372;9.918;2022-10-12T05:11:47;101740.00;;;9.00
11792;BMP180;5953;52.372;9.918;2022-10-12T05:14:15;101742.00;;;9.00
11792;BMP180;5953;52.372;9.918;2022-10-12T05:16:43;101742.00;;;8.90
11792;BMP180;5953;52.372;9.918;2022-10-12T05:19:11;101750.00;;;8.90
11792;BMP180;5953;52.372;9.918;2022-10-12T05:21:38;101754.00;;;8.80
11792;BMP180;5953;52.372;9.918;2022-10-12T05:24:09;101744.00;;;9.00
11792;BMP180;5953;52.372;9.918;2022-10-12T05:26:37;101723.00;;;8.90
11792;BMP180;5953;52.372;9.918;2022-10-12T05:29:05;101749.00;;;8.70
11792;BMP180;5953;52.372;9.918;2022-10-12T05:31:33;101749.00;;;8.60
11792;BMP180;5953;52.372;9.918;2022-10-12T05:34:01;101758.00;;;8.60
11792;BMP180;5953;52.372;9.918;2022-10-12T05:36:28;101744.00;;;8.40
11792;BMP180;5953;52.372;9.918;2022-10-12T05:38:56;101740.00;;;8.50
11792;BMP180;5953;52.372;9.918;2022-10-12T05:41:25;101744.00;;;8.40
11792;BMP180;5953;52.372;9.918;2022-10-12T05:43:53;101748.00;;;8.40
11792;BMP180;5953;52.372;9.918;2022-10-12T05:46:21;101751.00;;;8.30
11792;BMP180;5953;52.372;9.918;2022-10-12T05:48:48;101739.00;;;8.30
11792;BMP180;5953;52.372;9.918;2022-10-12T05:51:16;101735.00;;;8.20
11792;BMP180;5953;52.372;9.918;2022-10-12T05:53:44;101741.00;;;8.30
11792;BMP180;5953;52.372;9.918;2022-10-12T05:56:12;101728.00;;;8.40
11792;BMP180;5953;52.372;9.918;2022-10-12T05:58:41;101739.00;;;8.30
11792;BMP180;5953;52.372;9.918;2022-10-12T06:01:10;101741.00;;;8.40
11792;BMP180;5953;52.372;9.918;2022-10-12T06:03:39;101736.00;;;8.30
11792;BMP180;5953;52.372;9.918;2022-10-12T06:06:07;101743.00;;;8.30
11792;BMP180;5953;52.372;9.918;2022-10-12T06:08:35;101728.00;;;8.30
11792;BMP180;5953;52.372;9.918;2022-10-12T06:11:03;101731.00;;;8.30
11792;BMP180;5953;52.372;9.918;2022-10-12T06:13:31;101735.00;;;8.40
11792;BMP180;5953;52.372;9.918;2022-10-12T06:16:00;101744.00;;;8.30
11792;BMP180;5953;52.372;9.918;2022-10-12T06:18:28;101735.00;;;8.30
11792;BMP180;5953;52.372;9.918;2022-10-12T06:20:55;101736.00;;;8.40
11792;BMP180;5953;52.372;9.918;2022-10-12T06:23:43;101735.00;;;8.30
11792;BMP180;5953;52.372;9.918;2022-10-12T06:26:11;101730.00;;;8.40
11792;BMP180;5953;52.372;9.918;2022-10-12T06:28:39;101732.00;;;8.40
11792;BMP180;5953;52.372;9.918;2022-10-12T06:31:09;101733.00;;;8.60
11792;BMP180;5953;52.372;9.918;2022-10-12T06:33:37;101732.00;;;8.60
11792;BMP180;5953;52.372;9.918;2022-10-12T06:36:05;101725.00;;;8.60
11792;BMP180;5953;52.372;9.918;2022-10-12T06:38:32;101724.00;;;8.90
11792;BMP180;5953;52.372;9.918;2022-10-12T06:41:00;101727.00;;;9.10
11792;BMP180;5953;52.372;9.918;2022-10-12T06:43:28;101732.00;;;9.20
11792;BMP180;5953;52.372;9.918;2022-10-12T06:45:58;101728.00;;;9.40
11792;BMP180;5953;52.372;9.918;2022-10-12T06:48:28;101736.00;;;9.60
11792;BMP180;5953;52.372;9.918;2022-10-12T06:50:56;101723.00;;;9.50
11792;BMP180;5953;52.372;9.918;2022-10-12T06:53:24;101726.00;;;9.50
11792;BMP180;5953;52.372;9.918;2022-10-12T06:55:54;101740.00;;;9.50
11792;BMP180;5953;52.372;9.918;2022-10-12T06:58:21;101734.00;;;9.20
11792;BMP180;5953;52.372;9.918;2022-10-12T07:00:49;101735.00;;;9.20
11792;BMP180;5953;52.372;9.918;2022-10-12T07:03:17;101733.00;;;9.40
11792;BMP180;5953;52.372;9.918;2022-10-12T07:05:47;101734.00;;;9.80
11792;BMP180;5953;52.372;9.918;2022-10-12T07:08:14;101743.00;;;10.00
11792;BMP180;5953;52.372;9.918;2022-10-12T07:10:43;101744.00;;;10.10
11792;BMP180;5953;52.372;9.918;2022-10-12T07:13:10;101748.00;;;10.40
11792;BMP180;5953;52.372;9.918;2022-10-12T07:15:38;101750.00;;;10.50
11792;BMP180;5953;52.372;9.918;2022-10-12T07:18:06;101739.00;;;10.50
11792;BMP180;5953;52.372;9.918;2022-10-12T07:20:34;101739.00;;;10.80
11792;BMP180;5953;52.372;9.918;2022-10-12T07:23:06;101741.00;;;11.20
11792;BMP180;5953;52.372;9.918;2022-10-12T07:25:34;101736.00;;;11.50
11792;BMP180;5953;52.372;9.918;2022-10-12T07:28:02;101734.00;;;11.30
11792;BMP180;5953;52.372;9.918;2022-10-12T07:30:31;101739.00;;;11.50
11792;BMP180;5953;52.372;9.918;2022-10-12T07:32:59;101733.00;;;11.40
11792;BMP180;5953;52.372;9.918;2022-10-12T07:35:27;101731.00;;;11.60
11792;BMP180;5953;52.372;9.918;2022-10-12T07:37:55;101728.00;;;11.70
11792;BMP180;5953;52.372;9.918;2022-10-12T07:40:24;101731.00;;;11.70
11792;BMP180;5953;52.372;9.918;2022-10-12T07:42:52;101736.00;;;12.00
11792;BMP180;5953;52.372;9.918;2022-10-12T07:45:40;101744.00;;;12.00
11792;BMP180;5953;52.372;9.918;2022-10-12T07:48:07;101741.00;;;12.10
11792;BMP180;5953;52.372;9.918;2022-10-12T07:50:36;101756.00;;;11.70
11792;BMP180;5953;52.372;9.918;2022-10-12T07:53:03;101746.00;;;12.10
11792;BMP180;5953;52.372;9.918;2022-10-12T07:55:32;101742.00;;;11.80
11792;BMP180;5953;52.372;9.918;2022-10-12T07:58:00;101748.00;;;11.90
11792;BMP180;5953;52.372;9.918;2022-10-12T08:00:28;101750.00;;;11.90
11792;BMP180;5953;52.372;9.918;2022-10-12T08:02:57;101742.00;;;12.20
11792;BMP180;5953;52.372;9.918;2022-10-12T08:05:25;101743.00;;;12.40
11792;BMP180;5953;52.372;9.918;2022-10-12T08:07:53;101744.00;;;12.60
11792;BMP180;5953;52.372;9.918;2022-10-12T08:10:21;101752.00;;;12.70
11792;BMP180;5953;52.372;9.918;2022-10-12T08:12:50;101748.00;;;12.90
11792;BMP180;5953;52.372;9.918;2022-10-12T08:15:18;101756.00;;;12.70
11792;BMP180;5953;52.372;9.918;2022-10-12T08:17:46;101750.00;;;12.90
11792;BMP180;5953;52.372;9.918;2022-10-12T08:20:14;101755.00;;;13.00
11792;BMP180;5953;52.372;9.918;2022-10-12T08:22:41;101770.00;;;13.10
11792;BMP180;5953;52.372;9.918;2022-10-12T08:25:09;101760.00;;;13.10
11792;BMP180;5953;52.372;9.918;2022-10-12T08:27:37;101744.00;;;13.30
11792;BMP180;5953;52.372;9.918;2022-10-12T08:30:08;101762.00;;;13.20
11792;BMP180;5953;52.372;9.918;2022-10-12T08:32:35;101763.00;;;13.30
11792;BMP180;5953;52.372;9.918;2022-10-12T08:35:04;101772.00;;;13.20
11792;BMP180;5953;52.372;9.918;2022-10-12T08:37:32;101767.00;;;12.70
11792;BMP180;5953;52.372;9.918;2022-10-12T08:39:59;101759.00;;;12.90
11792;BMP180;5953;52.372;9.918;2022-10-12T08:42:35;101753.00;;;13.00
11792;BMP180;5953;52.372;9.918;2022-10-12T08:45:34;101759.00;;;13.20
11792;BMP180;5953;52.372;9.918;2022-10-12T08:48:08;101769.00;;;13.70
11792;BMP180;5953;52.372;9.918;2022-10-12T08:50:42;101749.00;;;13.90
11792;BMP180;5953;52.372;9.918;2022-10-12T08:53:15;101760.00;;;14.00
11792;BMP180;5953;52.372;9.918;2022-10-12T08:55:45;101772.00;;;14.20
11792;BMP180;5953;52.372;9.918;2022-10-12T08:58:15;101749.00;;;14.10
11792;BMP180;5953;52.372;9.918;2022-10-12T09:00:49;101747.00;;;14.30
11792;BMP180;5953;52.372;9.918;2022-10-12T09:03:28;101750.00;;;14.40
11792;BMP180;5953;52.372;9.918;2022-10-12T09:06:08;101754.00;;;14.40
11792;BMP180;5953;52.372;9.918;2022-10-12T09:08:48;101746.00;;;14.70
11792;BMP180;5953;52.372;9.918;2022-10-12T09:11:30;101745.00;;;14.90
11792;BMP180;5953;52.372;9.918;2022-10-12T09:14:06;101743.00;;;14.70
11792;BMP180;5953;52.372;9.918;2022-10-12T09:16:40;101754.00;;;15.10
11792;BMP180;5953;52.372;9.918;2022-10-12T09:19:15;101743.00;;;14.80
11792;BMP180;5953;52.372;9.918;2022-10-12T09:21:46;101738.00;;;15.00
11792;BMP180;5953;52.372;9.918;2022-10-12T09:24:17;101745.00;;;15.30
11792;BMP180;5953;52.372;9.918;2022-10-12T09:26:48;101746.00;;;15.60
11792;BMP180;5953;52.372;9.918;2022-10-12T09:29:23;101745.00;;;15.70
11792;BMP180;5953;52.372;9.918;2022-10-12T09:34:42;101741.00;;;15.80
11792;BMP180;5953;52.372;9.918;2022-10-12T09:37:13;101738.00;;;16.10
11792;BMP180;5953;52.372;9.918;2022-10-12T09:39:44;101742.00;;;15.90
11792;BMP180;5953;52.372;9.918;2022-10-12T09:42:12;101729.00;;;16.30
11792;BMP180;5953;52.372;9.918;2022-10-12T09:44:43;101727.00;;;16.00
11792;BMP180;5953;52.372;9.918;2022-10-12T09:47:25;101728.00;;;16.00
11792;BMP180;5953;52.372;9.918;2022-10-12T09:49:55;101732.00;;;16.30
11792;BMP180;5953;52.372;9.918;2022-10-12T09:52:27;101732.00;;;15.90
11792;BMP180;5953;52.372;9.918;2022-10-12T09:54:58;101728.00;;;16.30
11792;BMP180;5953;52.372;9.918;2022-10-12T09:57:33;101728.00;;;16.40
11792;BMP180;5953;52.372;9.918;2022-10-12T10:00:04;101724.00;;;16.10
11792;BMP180;5953;52.372;9.918;2022-10-12T10:02:46;101718.00;;;16.50
11792;BMP180;5953;52.372;9.918;2022-10-12T10:05:23;101720.00;;;16.20
11792;BMP180;5953;52.372;9.918;2022-10-12T10:07:51;101719.00;;;16.80
11792;BMP180;5953;52.372;9.918;2022-10-12T10:10:21;101724.00;;;16.80
11792;BMP180;5953;52.372;9.918;2022-10-12T10:12:57;101715.00;;;17.00
11792;BMP180;5953;52.372;9.918;2022-10-12T10:15:29;101719.00;;;16.90
11792;BMP180;5953;52.372;9.918;2022-10-12T10:18:00;101712.00;;;17.40
11792;BMP180;5953;52.372;9.918;2022-10-12T10:20:31;101721.00;;;17.30
11792;BMP180;5953;52.372;9.918;2022-10-12T10:23:02;101716.00;;;17.30
11792;BMP180;5953;52.372;9.918;2022-10-12T10:25:30;101702.00;;;17.40
11792;BMP180;5953;52.372;9.918;2022-10-12T10:28:20;101711.00;;;17.50
11792;BMP180;5953;52.372;9.918;2022-10-12T10:30:56;101711.00;;;17.50
11792;BMP180;5953;52.372;9.918;2022-10-12T10:33:27;101718.00;;;17.60
11792;BMP180;5953;52.372;9.918;2022-10-12T10:36:01;101699.00;;;17.50
11792;BMP180;5953;52.372;9.918;2022-10-12T10:38:31;101700.00;;;17.80
11792;BMP180;5953;52.372;9.918;2022-10-12T10:41:01;101700.00;;;18.10
11792;BMP180;5953;52.372;9.918;2022-10-12T10:43:32;101698.00;;;18.10
11792;BMP180;5953;52.372;9.918;2022-10-12T10:46:02;101701.00;;;18.10
11792;BMP180;5953;52.372;9.918;2022-10-12T10:48:40;101702.00;;;17.90
11792;BMP180;5953;52.372;9.918;2022-10-12T10:51:16;101705.00;;;18.10
11792;BMP180;5953;52.372;9.918;2022-10-12T10:53:46;101690.00;;;18.40
11792;BMP180;5953;52.372;9.918;2022-10-12T10:56:16;101689.00;;;18.30
11792;BMP180;5953;52.372;9.918;2022-10-12T10:58:49;101672.00;;;18.60
11792;BMP180;5953;52.372;9.918;2022-10-12T11:01:21;101685.00;;;18.50
11792;BMP180;5953;52.372;9.918;2022-10-12T11:03:54;101682.00;;;18.30
11792;BMP180;5953;52.372;9.918;2022-10-12T11:06:31;101683.00;;;18.30
11792;BMP180;5953;52.372;9.918;2022-10-12T11:09:05;101674.00;;;18.30
11792;BMP180;5953;52.372;9.918;2022-10-12T11:11:35;101671.00;;;18.50
11792;BMP180;5953;52.372;9.918;2022-10-12T11:14:12;101676.00;;;18.90
11792;BMP180;5953;52.372;9.918;2022-10-12T11:16:45;101664.00;;;18.70
11792;BMP180;5953;52.372;9.918;2022-10-12T11:19:23;101662.00;;;18.80
11792;BMP180;5953;52.372;9.918;2022-10-12T11:21:55;101664.00;;;18.80
11792;BMP180;5953;52.372;9.918;2022-10-12T11:24:28;101659.00;;;18.90
11792;BMP180;5953;52.372;9.918;2022-10-12T11:27:02;101663.00;;;18.90
11792;BMP180;5953;52.372;9.918;2022-10-12T11:29:32;101658.00;;;18.90
11792;BMP180;5953;52.372;9.918;2022-10-12T11:32:04;101658.00;;;18.70
11792;BMP180;5953;52.372;9.918;2022-10-12T11:34:42;101658.00;;;19.20
11792;BMP180;5953;52.372;9.918;2022-10-12T11:37:15;101642.00;;;19.10
11792;BMP180;5953;52.372;9.918;2022-10-12T11:39:49;101645.00;;;19.20
11792;BMP180;5953;52.372;9.918;2022-10-12T11:42:24;101640.00;;;19.50
11792;BMP180;5953;52.372;9.918;2022-10-12T11:44:54;101632.00;;;19.60
11792;BMP180;5953;52.372;9.918;2022-10-12T11:47:29;101631.00;;;19.50
11792;BMP180;5953;52.372;9.918;2022-10-12T11:50:02;101629.00;;;19.40
11792;BMP180;5953;52.372;9.918;2022-10-12T11:52:36;101623.00;;;19.50
11792;BMP180;5953;52.372;9.918;2022-10-12T11:55:22;101627.00;;;19.80
11792;BMP180;5953;52.372;9.918;2022-10-12T11:57:53;101622.00;;;19.80
11792;BMP180;5953;52.372;9.918;2022-10-12T12:00:24;101618.00;;;19.60
11792;BMP180;5953;52.372;9.918;2022-10-12T12:03:01;101615.00;;;19.80
11792;BMP180;5953;52.372;9.918;2022-10-12T12:05:32;101609.00;;;19.90
11792;BMP180;5953;52.372;9.918;2022-10-12T12:08:00;101612.00;;;20.00
11792;BMP180;5953;52.372;9.918;2022-10-12T12:10:51;101601.00;;;19.90
11792;BMP180;5953;52.372;9.918;2022-10-12T12:13:22;101606.00;;;19.80
11792;BMP180;5953;52.372;9.918;2022-10-12T12:16:25;101593.00;;;19.50
11792;BMP180;5953;52.372;9.918;2022-10-12T12:25:28;101595.00;;;20.00
11792;BMP180;5953;52.372;9.918;2022-10-12T12:27:58;101589.00;;;20.00
11792;BMP180;5953;52.372;9.918;2022-10-12T12:30:34;101590.00;;;19.90
11792;BMP180;5953;52.372;9.918;2022-10-12T12:33:21;101594.00;;;20.10
11792;BMP180;5953;52.372;9.918;2022-10-12T12:35:53;101587.00;;;20.20
11792;BMP180;5953;52.372;9.918;2022-10-12T12:38:25;101573.00;;;19.90
11792;BMP180;5953;52.372;9.918;2022-10-12T12:41:03;101575.00;;;20.10
11792;BMP180;5953;52.372;9.918;2022-10-12T12:43:56;101569.00;;;20.00
11792;BMP180;5953;52.372;9.918;2022-10-12T12:49:24;101565.00;;;19.60
11792;BMP180;5953;52.372;9.918;2022-10-12T12:51:53;101570.00;;;20.00
11792;BMP180;5953;52.372;9.918;2022-10-12T12:54:24;101562.00;;;19.80
11792;BMP180;5953;52.372;9.918;2022-10-12T12:57:28;101561.00;;;20.10
11792;BMP180;5953;52.372;9.918;2022-10-12T13:00:11;101555.00;;;20.20
11792;BMP180;5953;52.372;9.918;2022-10-12T13:06:35;101549.00;;;20.40
11792;BMP180;5953;52.372;9.918;2022-10-12T13:09:36;101556.00;;;20.40
11792;BMP180;5953;52.372;9.918;2022-10-12T13:12:31;101550.00;;;20.10
11792;BMP180;5953;52.372;9.918;2022-10-12T13:15:24;101550.00;;;20.10
11792;BMP180;5953;52.372;9.918;2022-10-12T13:18:10;101553.00;;;19.90
11792;BMP180;5953;52.372;9.918;2022-10-12T13:21:03;101544.00;;;20.20
11792;BMP180;5953;52.372;9.918;2022-10-12T13:23:31;101540.00;;;20.30
11792;BMP180;5953;52.372;9.918;2022-10-12T13:26:05;101531.00;;;19.50
11792;BMP180;5953;52.372;9.918;2022-10-12T13:28:38;101536.00;;;19.50
11792;BMP180;5953;52.372;9.918;2022-10-12T13:31:13;101529.00;;;19.60
11792;BMP180;5953;52.372;9.918;2022-10-12T13:33:44;101536.00;;;19.80
11792;BMP180;5953;52.372;9.918;2022-10-12T13:36:19;101526.00;;;20.00
11792;BMP180;5953;52.372;9.918;2022-10-12T13:38:53;101528.00;;;20.20
11792;BMP180;5953;52.372;9.918;2022-10-12T13:41:23;101515.00;;;20.20
11792;BMP180;5953;52.372;9.918;2022-10-12T13:43:53;101517.00;;;20.10
11792;BMP180;5953;52.372;9.918;2022-10-12T13:46:38;101514.00;;;20.10
11792;BMP180;5953;52.372;9.918;2022-10-12T13:49:15;101511.00;;;20.20
11792;BMP180;5953;52.372;9.918;2022-10-12T13:51:46;101513.00;;;20.30
11792;BMP180;5953;52.372;9.918;2022-10-12T13:54:16;101512.00;;;20.30
11792;BMP180;5953;52.372;9.918;2022-10-12T13:56:48;101509.00;;;20.30
11792;BMP180;5953;52.372;9.918;2022-10-12T13:59:19;101502.00;;;20.20
11792;BMP180;5953;52.372;9.918;2022-10-12T14:01:49;101495.00;;;20.20
11792;BMP180;5953;52.372;9.918;2022-10-12T14:04:18;101506.00;;;20.30
11792;BMP180;5953;52.372;9.918;2022-10-12T14:06:51;101499.00;;;20.10
11792;BMP180;5953;52.372;9.918;2022-10-12T14:09:21;101497.00;;;20.20
11792;BMP180;5953;52.372;9.918;2022-10-12T14:11:52;101501.00;;;19.80
11792;BMP180;5953;52.372;9.918;2022-10-12T14:14:27;101496.00;;;19.90
11792;BMP180;5953;52.372;9.918;2022-10-12T14:16:55;101489.00;;;19.90
11792;BMP180;5953;52.372;9.918;2022-10-12T14:19:32;101486.00;;;20.00
11792;BMP180;5953;52.372;9.918;2022-10-12T14:22:01;101480.00;;;20.20
11792;BMP180;5953;52.372;9.918;2022-10-12T14:24:29;101485.00;;;20.00
11792;BMP180;5953;52.372;9.918;2022-10-12T14:27:00;101489.00;;;19.60
11792;BMP180;5953;52.372;9.918;2022-10-12T14:29:33;101480.00;;;19.90
11792;BMP180;5953;52.372;9.918;2022-10-12T14:32:03;101483.00;;;20.00
11792;BMP180;5953;52.372;9.918;2022-10-12T14:34:42;101472.00;;;20.10
11792;BMP180;5953;52.372;9.918;2022-10-12T14:37:25;101463.00;;;20.10
11792;BMP180;5953;52.372;9.918;2022-10-12T14:39:53;101468.00;;;20.20
11792;BMP180;5953;52.372;9.918;2022-10-12T14:42:30;101473.00;;;20.20
11792;BMP180;5953;52.372;9.918;2022-10-12T14:44:58;101470.00;;;20.20
11792;BMP180;5953;52.372;9.918;2022-10-12T14:47:28;101460.00;;;20.20
11792;BMP180;5953;52.372;9.918;2022-10-12T14:49:58;101462.00;;;19.90
11792;BMP180;5953;52.372;9.918;2022-10-12T14:52:29;101469.00;;;19.60